createdAt,value
2023-03-04T00:00:13.146Z,0.90
2023-03-04T00:02:40.166Z,0.90
2023-03-04T00:05:07.716Z,0.90
2023-03-04T00:07:35.523Z,0.80
2023-03-04T00:10:02.777Z,0.80
2023-03-04T00:12:29.976Z,0.70
2023-03-04T00:14:57.259Z,0.70
2023-03-04T00:17:24.465Z,0.60
2023-03-04T00:19:51.400Z,0.80
2023-03-04T00:22:18.569Z,0.80
2023-03-04T00:24:46.639Z,0.70
2023-03-04T00:27:13.848Z,0.60
2023-03-04T00:29:41.192Z,0.60
2023-03-04T00:32:08.460Z,0.70
2023-03-04T00:34:35.500Z,0.50
2023-03-04T00:37:03.692Z,0.40
2023-03-04T00:39:31.297Z,0.30
2023-03-04T00:41:59.354Z,0.30
2023-03-04T00:44:26.804Z,0.30
2023-03-04T00:46:53.831Z,0.30
2023-03-04T00:49:20.845Z,0.30
2023-03-04T00:51:47.891Z,0.30
2023-03-04T00:54:14.865Z,0.20
2023-03-04T00:56:41.873Z,0.20
2023-03-04T00:59:08.853Z,0.30
2023-03-04T01:01:35.911Z,0.30
2023-03-04T01:04:03.445Z,0.20
2023-03-04T01:06:30.584Z,0.10
2023-03-04T01:08:57.547Z,0.20
2023-03-04T01:11:24.849Z,0.10
2023-03-04T01:13:52.799Z,0.00
2023-03-04T01:16:20.625Z,0.00
2023-03-04T01:18:47.836Z,0.00
2023-03-04T01:21:15.286Z,-0.10
2023-03-04T01:23:42.276Z,-0.10
2023-03-04T01:26:09.200Z,-0.10
2023-03-04T01:28:36.151Z,-0.20
2023-03-04T01:31:04.026Z,-0.20
2023-03-04T01:33:31.650Z,-0.30
2023-03-04T01:35:58.779Z,-0.30
2023-03-04T01:38:25.904Z,-0.20
2023-03-04T01:40:53.911Z,-0.20
2023-03-04T01:43:27.779Z,-0.30
2023-03-04T01:45:56.835Z,-0.30
2023-03-04T01:48:37.164Z,-0.40
2023-03-04T01:51:06.434Z,-0.50
2023-03-04T01:53:34.042Z,-0.40
2023-03-04T01:56:22.571Z,-0.50
2023-03-04T01:59:16.012Z,-0.50
2023-03-04T02:02:01.975Z,-0.60
2023-03-04T02:04:34.282Z,-0.60
2023-03-04T02:07:02.864Z,-0.50
2023-03-04T02:09:31.643Z,-0.50
2023-03-04T02:11:58.999Z,-0.50
2023-03-04T02:14:26.364Z,-0.50
2023-03-04T02:16:53.500Z,-0.60
2023-03-04T02:19:49.961Z,-0.60
2023-03-04T02:22:17.430Z,-0.60
2023-03-04T02:25:04.462Z,-0.70
2023-03-04T02:27:31.517Z,-0.60
2023-03-04T02:29:58.572Z,-0.50
2023-03-04T02:32:25.838Z,-0.60
2023-03-04T02:34:52.756Z,-0.50
2023-03-04T02:37:21.625Z,-0.50
2023-03-04T02:39:50.134Z,-0.60
2023-03-04T02:42:18.575Z,-0.60
2023-03-04T02:44:48.366Z,-0.70
2023-03-04T02:47:20.179Z,-0.60
2023-03-04T02:49:47.610Z,-0.60
2023-03-04T02:52:19.923Z,-0.70
2023-03-04T02:54:47.088Z,-0.80
2023-03-04T02:57:15.041Z,-0.90
2023-03-04T02:59:43.112Z,-1.00
2023-03-04T03:02:10.310Z,-0.90
2023-03-04T03:04:39.354Z,-1.00
2023-03-04T03:07:06.671Z,-0.90
2023-03-04T03:09:33.856Z,-0.90
2023-03-04T03:12:01.200Z,-0.80
2023-03-04T03:14:28.512Z,-0.80
2023-03-04T03:16:55.681Z,-0.80
2023-03-04T03:19:22.666Z,-1.00
2023-03-04T03:21:50.364Z,-1.00
2023-03-04T03:24:17.557Z,-1.00
2023-03-04T03:26:44.696Z,-0.90
2023-03-04T03:29:11.870Z,-0.90
2023-03-04T03:31:38.913Z,-0.90
2023-03-04T03:34:05.947Z,-0.90
2023-03-04T03:36:33.061Z,-1.00
2023-03-04T03:39:00.065Z,-0.90
2023-03-04T03:41:27.155Z,-0.90
2023-03-04T03:43:54.427Z,-1.00
2023-03-04T03:46:21.349Z,-1.00
2023-03-04T03:48:48.378Z,-1.00
2023-03-04T03:51:15.541Z,-1.10
2023-03-04T03:53:42.448Z,-1.10
2023-03-04T03:56:09.590Z,-1.10
2023-03-04T03:58:36.499Z,-1.10
2023-03-04T04:01:03.414Z,-1.10
2023-03-04T04:03:31.182Z,-1.10
2023-03-04T04:05:58.275Z,-1.20
2023-03-04T04:08:25.124Z,-1.20
2023-03-04T04:10:52.163Z,-1.20
2023-03-04T04:13:19.081Z,-1.10
2023-03-04T04:15:46.392Z,-1.10
2023-03-04T04:18:13.437Z,-1.10
2023-03-04T04:20:40.428Z,-1.10
2023-03-04T04:23:07.557Z,-1.20
2023-03-04T04:25:34.822Z,-1.20
2023-03-04T04:28:01.985Z,-1.20
2023-03-04T04:30:29.392Z,-1.20
2023-03-04T04:32:56.548Z,-1.30
2023-03-04T04:35:23.987Z,-1.30
2023-03-04T04:37:51.224Z,-1.30
2023-03-04T04:40:18.646Z,-1.30
2023-03-04T04:42:45.877Z,-1.30
2023-03-04T04:45:13.023Z,-1.30
2023-03-04T04:47:40.036Z,-1.40
2023-03-04T04:50:07.995Z,-1.40
2023-03-04T04:52:34.990Z,-1.40
2023-03-04T04:55:02.516Z,-1.40
2023-03-04T04:57:29.589Z,-1.40
2023-03-04T04:59:56.832Z,-1.50
2023-03-04T05:02:24.060Z,-1.50
2023-03-04T05:04:51.100Z,-1.60
2023-03-04T05:07:18.226Z,-1.60
2023-03-04T05:09:46.005Z,-1.60
2023-03-04T05:12:13.080Z,-1.60
2023-03-04T05:14:40.018Z,-1.60
2023-03-04T05:17:07.177Z,-1.60
2023-03-04T05:19:34.198Z,-1.70
2023-03-04T05:22:01.421Z,-1.60
2023-03-04T05:24:28.508Z,-1.60
2023-03-04T05:26:55.506Z,-1.60
2023-03-04T05:29:22.393Z,-1.60
2023-03-04T05:31:49.407Z,-1.70
2023-03-04T05:34:16.414Z,-1.70
2023-03-04T05:36:43.405Z,-1.80
2023-03-04T05:39:10.334Z,-1.80
2023-03-04T05:41:37.333Z,-1.80
2023-03-04T05:44:04.447Z,-1.90
2023-03-04T05:46:33.535Z,-1.90
2023-03-04T05:49:00.737Z,-1.90
2023-03-04T05:51:27.814Z,-1.90
2023-03-04T05:53:54.748Z,-2.00
2023-03-04T05:56:21.901Z,-1.90
2023-03-04T05:58:48.980Z,-2.00
2023-03-04T06:01:16.309Z,-2.00
2023-03-04T06:03:43.626Z,-2.00
2023-03-04T06:06:11.047Z,-2.00
2023-03-04T06:08:38.217Z,-2.10
2023-03-04T06:11:05.770Z,-2.00
2023-03-04T06:13:33.322Z,-2.00
2023-03-04T06:16:00.974Z,-2.00
2023-03-04T06:18:29.467Z,-2.00
2023-03-04T06:21:01.442Z,-2.10
2023-03-04T06:23:29.731Z,-2.10
2023-03-04T06:25:58.872Z,-2.10
2023-03-04T06:28:26.284Z,-2.10
2023-03-04T06:30:54.640Z,-2.00
2023-03-04T06:33:21.845Z,-2.00
2023-03-04T06:35:49.159Z,-1.90
2023-03-04T06:38:16.439Z,-1.80
2023-03-04T06:40:45.807Z,-1.80
2023-03-04T06:43:12.944Z,-1.80
2023-03-04T06:45:40.355Z,-1.80
2023-03-04T06:48:07.441Z,-1.70
2023-03-04T06:50:34.813Z,-1.70
2023-03-04T06:53:01.864Z,-1.70
2023-03-04T06:55:28.825Z,-1.70
2023-03-04T06:57:55.766Z,-1.60
2023-03-04T07:00:24.076Z,-1.60
2023-03-04T07:02:52.889Z,-1.60
2023-03-04T07:05:21.247Z,-1.50
2023-03-04T07:07:49.807Z,-1.40
2023-03-04T07:10:21.808Z,-1.40
2023-03-04T07:12:49.013Z,-1.40
2023-03-04T07:15:18.981Z,-1.40
2023-03-04T07:17:45.981Z,-1.30
2023-03-04T07:20:13.113Z,-1.20
2023-03-04T07:22:40.049Z,-1.20
2023-03-04T07:25:07.448Z,-1.20
2023-03-04T07:27:34.623Z,-1.00
2023-03-04T07:30:01.715Z,-0.90
2023-03-04T07:32:28.892Z,-0.90
2023-03-04T07:34:56.068Z,-0.90
2023-03-04T07:37:23.173Z,-0.80
2023-03-04T07:39:50.256Z,-0.70
2023-03-04T07:42:17.616Z,-0.70
2023-03-04T07:44:44.913Z,-0.70
2023-03-04T07:47:11.891Z,-0.60
2023-03-04T07:49:38.803Z,-0.40
2023-03-04T07:52:06.206Z,-0.30
2023-03-04T07:54:33.507Z,-0.20
2023-03-04T07:57:00.622Z,-0.20
2023-03-04T07:59:27.859Z,0.00
2023-03-04T08:01:54.964Z,0.10
2023-03-04T08:04:22.236Z,0.20
2023-03-04T08:06:49.240Z,0.40
2023-03-04T08:09:16.397Z,0.50
2023-03-04T08:11:43.566Z,0.60
2023-03-04T08:14:12.599Z,0.70
2023-03-04T08:16:39.527Z,0.80
2023-03-04T08:19:08.029Z,0.70
2023-03-04T08:21:35.475Z,0.80
2023-03-04T08:24:08.854Z,0.70
2023-03-04T08:26:43.867Z,0.70
2023-03-04T08:29:16.793Z,0.70
2023-03-04T08:31:48.595Z,0.80
2023-03-04T08:34:16.369Z,0.90
2023-03-04T08:36:43.274Z,1.20
2023-03-04T08:39:13.533Z,1.30
2023-03-04T08:41:40.874Z,1.40
2023-03-04T08:44:10.294Z,1.40
2023-03-04T08:46:38.757Z,1.40
2023-03-04T08:49:06.399Z,1.50
2023-03-04T08:51:35.706Z,1.50
2023-03-04T08:54:05.536Z,1.40
2023-03-04T08:56:32.492Z,1.30
2023-03-04T08:58:59.796Z,1.40
2023-03-04T09:01:27.374Z,1.40
2023-03-04T09:03:55.360Z,1.40
2023-03-04T09:06:22.343Z,1.40
2023-03-04T09:08:49.296Z,1.40
2023-03-04T09:11:16.630Z,1.40
2023-03-04T09:13:43.701Z,1.40
2023-03-04T09:16:13.454Z,1.30
2023-03-04T09:18:42.138Z,1.30
2023-03-04T09:21:10.153Z,1.40
2023-03-04T09:23:38.216Z,1.40
2023-03-04T09:26:23.959Z,1.30
2023-03-04T09:28:54.824Z,1.20
2023-03-04T09:31:21.967Z,1.40
2023-03-04T09:33:49.415Z,1.60
2023-03-04T09:36:16.738Z,1.60
2023-03-04T09:38:43.861Z,1.70
2023-03-04T09:41:34.331Z,1.90
2023-03-04T09:44:06.851Z,2.00
2023-03-04T09:46:37.701Z,2.00
2023-03-04T09:49:07.110Z,2.00
2023-03-04T09:51:37.215Z,1.90
2023-03-04T09:54:23.316Z,1.80
2023-03-04T09:56:51.605Z,1.80
2023-03-04T09:59:32.418Z,1.90
2023-03-04T10:02:03.352Z,2.10
2023-03-04T10:04:42.700Z,2.10
2023-03-04T10:07:18.816Z,2.30
2023-03-04T10:10:07.142Z,2.20
2023-03-04T10:12:40.199Z,2.10
2023-03-04T10:15:31.044Z,2.20
2023-03-04T10:18:07.256Z,2.30
2023-03-04T10:21:05.903Z,2.40
2023-03-04T10:23:35.223Z,2.30
2023-03-04T10:26:16.054Z,2.30
2023-03-04T10:28:43.589Z,2.20
2023-03-04T10:31:30.237Z,2.30
2023-03-04T10:33:57.308Z,2.40
2023-03-04T10:36:29.961Z,2.50
2023-03-04T10:39:05.368Z,2.70
2023-03-04T10:41:33.119Z,2.80
2023-03-04T10:44:09.542Z,2.70
2023-03-04T10:46:42.277Z,2.70
2023-03-04T10:49:15.059Z,2.80
2023-03-04T10:54:29.965Z,2.80
2023-03-04T10:56:59.222Z,2.50
2023-03-04T10:59:53.701Z,2.50
2023-03-04T11:02:23.188Z,2.40
2023-03-04T11:05:05.266Z,2.50
2023-03-04T11:07:52.279Z,2.70
2023-03-04T11:10:39.076Z,2.50
2023-03-04T11:13:12.156Z,2.20
2023-03-04T11:16:23.230Z,2.30
2023-03-04T11:18:57.038Z,2.10
2023-03-04T11:21:27.042Z,2.10
2023-03-04T11:24:03.662Z,2.20
2023-03-04T11:26:51.423Z,2.50
2023-03-04T11:29:26.451Z,2.60
2023-03-04T11:32:01.097Z,2.60
2023-03-04T11:34:49.787Z,2.70
2023-03-04T11:37:45.898Z,2.90
2023-03-04T11:40:16.917Z,3.00
2023-03-04T11:42:51.660Z,2.90
2023-03-04T11:45:38.645Z,3.00
2023-03-04T11:48:17.302Z,3.20
2023-03-04T11:51:02.407Z,3.30
2023-03-04T11:53:51.850Z,3.40
2023-03-04T11:56:27.308Z,3.40
2023-03-04T11:59:20.292Z,3.60
2023-03-04T12:01:58.601Z,3.80
2023-03-04T12:04:34.637Z,4.00
2023-03-04T12:07:35.476Z,4.30
2023-03-04T12:10:23.430Z,4.50
2023-03-04T12:13:01.952Z,4.50
2023-03-04T12:15:47.886Z,4.50
2023-03-04T12:18:44.084Z,4.50
2023-03-04T12:21:31.477Z,4.50
2023-03-04T12:23:58.468Z,4.40
2023-03-04T12:26:38.441Z,4.20
2023-03-04T12:29:47.477Z,4.50
2023-03-04T12:32:20.599Z,4.90
2023-03-04T12:35:14.004Z,5.10
2023-03-04T12:37:59.100Z,5.00
2023-03-04T12:40:54.927Z,5.10
2023-03-04T12:43:41.491Z,5.00
2023-03-04T12:46:30.342Z,4.50
2023-03-04T12:49:21.596Z,4.50
2023-03-04T12:52:00.612Z,4.70
2023-03-04T12:54:41.112Z,4.80
2023-03-04T12:57:16.837Z,4.90
2023-03-04T13:00:00.095Z,5.20
2023-03-04T13:02:58.935Z,5.00
2023-03-04T13:05:38.263Z,5.10
2023-03-04T13:08:27.109Z,5.50
2023-03-04T13:11:00.462Z,5.90
2023-03-04T13:13:42.365Z,5.60
2023-03-04T13:16:18.241Z,5.50
2023-03-04T13:18:45.349Z,5.50
2023-03-04T13:21:12.383Z,5.40
2023-03-04T13:23:39.806Z,5.70
2023-03-04T13:26:21.706Z,5.90
2023-03-04T13:28:54.590Z,6.30
2023-03-04T13:31:26.442Z,6.50
2023-03-04T13:33:56.675Z,6.70
2023-03-04T13:36:54.989Z,6.80
2023-03-04T13:39:27.965Z,7.20
2023-03-04T13:41:57.119Z,7.40
2023-03-04T13:44:35.054Z,7.60
2023-03-04T13:47:18.767Z,7.70
2023-03-04T13:49:45.882Z,7.40
2023-03-04T13:52:39.532Z,7.10
2023-03-04T13:55:36.099Z,7.00
2023-03-04T13:58:27.034Z,6.70
2023-03-04T14:00:55.580Z,6.70
2023-03-04T14:03:26.666Z,6.60
2023-03-04T14:06:30.934Z,6.70
2023-03-04T14:08:58.533Z,6.80
2023-03-04T14:11:28.241Z,6.50
2023-03-04T14:13:57.490Z,6.40
2023-03-04T14:16:28.024Z,6.50
2023-03-04T14:19:09.309Z,6.70
2023-03-04T14:21:37.064Z,7.00
2023-03-04T14:24:12.475Z,6.90
2023-03-04T14:26:39.569Z,6.50
2023-03-04T14:29:22.896Z,6.00
2023-03-04T14:31:50.365Z,5.90
2023-03-04T14:34:24.516Z,5.70
2023-03-04T14:36:51.549Z,5.70
2023-03-04T14:39:19.995Z,5.80
2023-03-04T14:41:49.227Z,5.90
2023-03-04T14:44:35.968Z,6.10
2023-03-04T14:47:23.377Z,6.10
2023-03-04T14:49:50.825Z,6.20
2023-03-04T14:52:35.203Z,6.10
2023-03-04T14:55:19.955Z,6.10
2023-03-04T14:57:51.788Z,6.20
2023-03-04T15:00:29.962Z,6.30
2023-03-04T15:02:59.997Z,6.30
2023-03-04T15:05:33.128Z,6.20
2023-03-04T15:08:03.023Z,5.90
2023-03-04T15:10:35.638Z,5.50
2023-03-04T15:13:07.197Z,5.50
2023-03-04T15:15:44.207Z,5.60
2023-03-04T15:18:30.027Z,5.60
2023-03-04T15:21:02.855Z,5.60
2023-03-04T15:23:32.140Z,5.40
2023-03-04T15:26:02.770Z,5.20
2023-03-04T15:28:36.448Z,5.00
2023-03-04T15:31:07.072Z,4.90
2023-03-04T15:33:34.239Z,4.70
2023-03-04T15:36:02.682Z,4.50
2023-03-04T15:38:30.018Z,4.30
2023-03-04T15:41:00.588Z,4.10
2023-03-04T15:43:27.768Z,4.00
2023-03-04T15:45:54.993Z,4.00
2023-03-04T15:48:22.256Z,4.00
2023-03-04T15:50:55.794Z,3.80
2023-03-04T15:53:44.787Z,3.70
2023-03-04T15:56:21.926Z,3.70
2023-03-04T15:58:57.790Z,3.60
2023-03-04T16:01:25.310Z,3.50
2023-03-04T16:03:53.837Z,3.50
2023-03-04T16:06:23.762Z,3.40
2023-03-04T16:08:52.112Z,3.30
2023-03-04T16:11:28.343Z,3.40
2023-03-04T16:13:55.435Z,3.40
2023-03-04T16:16:22.521Z,3.50
2023-03-04T16:18:49.586Z,3.40
2023-03-04T16:21:23.410Z,3.30
2023-03-04T16:23:52.431Z,3.20
2023-03-04T16:26:21.752Z,3.00
2023-03-04T16:28:49.281Z,3.00
2023-03-04T16:31:18.028Z,2.90
2023-03-04T16:33:45.239Z,2.90
2023-03-04T16:36:12.452Z,2.90
2023-03-04T16:38:39.558Z,2.90
2023-03-04T16:41:13.161Z,2.90
2023-03-04T16:43:41.410Z,2.90
2023-03-04T16:46:10.733Z,2.90
2023-03-04T16:48:37.943Z,2.90
2023-03-04T16:51:21.656Z,2.90
2023-03-04T16:53:54.849Z,2.90
2023-03-04T16:56:22.316Z,3.00
2023-03-04T16:58:49.997Z,2.90
2023-03-04T17:01:20.297Z,3.00
2023-03-04T17:03:47.893Z,3.00
2023-03-04T17:06:16.072Z,3.00
2023-03-04T17:08:43.403Z,3.10
2023-03-04T17:11:19.974Z,3.10
2023-03-04T17:13:48.059Z,3.10
2023-03-04T17:16:15.721Z,3.10
2023-03-04T17:18:45.676Z,3.10
2023-03-04T17:21:15.342Z,3.10
2023-03-04T17:23:42.411Z,3.20
2023-03-04T17:26:10.649Z,3.10
2023-03-04T17:28:38.764Z,3.00
2023-03-04T17:31:10.908Z,3.10
2023-03-04T17:33:39.176Z,3.10
2023-03-04T17:36:08.866Z,3.10
2023-03-04T17:38:37.034Z,3.10
2023-03-04T17:41:05.365Z,3.20
2023-03-04T17:43:32.576Z,3.20
2023-03-04T17:46:08.581Z,3.20
2023-03-04T17:48:36.032Z,3.20
2023-03-04T17:51:03.432Z,3.10
2023-03-04T17:53:30.614Z,3.10
2023-03-04T17:56:00.266Z,3.10
2023-03-04T17:58:30.305Z,3.10
2023-03-04T18:01:04.960Z,3.10
2023-03-04T18:03:32.151Z,3.10
2023-03-04T18:05:59.556Z,3.00
2023-03-04T18:08:26.560Z,2.90
2023-03-04T18:10:53.639Z,2.90
2023-03-04T18:13:20.919Z,2.90
2023-03-04T18:15:48.067Z,2.80
2023-03-04T18:18:15.514Z,2.80
2023-03-04T18:20:42.468Z,2.90
2023-03-04T18:23:09.423Z,3.00
2023-03-04T18:25:36.471Z,3.00
2023-03-04T18:28:04.340Z,3.00
2023-03-04T18:30:31.623Z,3.10
2023-03-04T18:33:02.670Z,3.10
2023-03-04T18:35:29.758Z,3.00
2023-03-04T18:37:57.112Z,3.00
2023-03-04T18:40:24.064Z,2.90
2023-03-04T18:42:51.510Z,2.90
2023-03-04T18:45:19.023Z,3.00
2023-03-04T18:47:50.375Z,3.00
2023-03-04T18:50:17.713Z,3.00
2023-03-04T18:52:45.107Z,3.10
2023-03-04T18:55:13.019Z,3.10
2023-03-04T18:57:46.957Z,3.10
2023-03-04T19:00:22.516Z,3.10
2023-03-04T19:03:00.187Z,3.10
2023-03-04T19:05:31.218Z,3.00
2023-03-04T19:07:58.450Z,3.00
2023-03-04T19:10:25.658Z,3.00
2023-03-04T19:12:52.711Z,3.00
2023-03-04T19:15:20.245Z,3.00
2023-03-04T19:17:47.405Z,3.00
2023-03-04T19:20:15.873Z,3.00
2023-03-04T19:22:43.281Z,2.90
2023-03-04T19:25:11.878Z,2.90
2023-03-04T19:27:39.025Z,2.90
2023-03-04T19:30:07.252Z,2.90
2023-03-04T19:32:34.345Z,2.90
2023-03-04T19:35:01.500Z,2.90
2023-03-04T19:37:28.806Z,2.90
2023-03-04T19:39:56.105Z,2.90
2023-03-04T19:42:24.162Z,2.80
2023-03-04T19:44:51.608Z,2.80
2023-03-04T19:47:18.560Z,2.80
2023-03-04T19:49:45.800Z,2.80
2023-03-04T19:52:12.824Z,2.80
2023-03-04T19:54:40.090Z,2.90
2023-03-04T19:57:07.126Z,2.80
2023-03-04T19:59:35.203Z,2.70
2023-03-04T20:02:03.017Z,2.70
2023-03-04T20:04:30.556Z,2.70
2023-03-04T20:06:57.739Z,2.70
2023-03-04T20:09:25.258Z,2.70
2023-03-04T20:11:58.755Z,2.60
2023-03-04T20:14:31.058Z,2.60
2023-03-04T20:17:02.690Z,2.60
2023-03-04T20:19:31.290Z,2.70
2023-03-04T20:21:58.822Z,2.70
2023-03-04T20:24:26.971Z,2.60
2023-03-04T20:26:54.306Z,2.70
2023-03-04T20:29:21.376Z,2.70
2023-03-04T20:31:49.068Z,2.70
2023-03-04T20:34:16.205Z,2.70
2023-03-04T20:36:43.478Z,2.70
2023-03-04T20:39:25.795Z,2.70
2023-03-04T20:41:57.047Z,2.70
2023-03-04T20:44:24.796Z,2.70
2023-03-04T20:46:52.614Z,2.70
2023-03-04T20:49:23.803Z,2.70
2023-03-04T20:51:52.384Z,2.70
2023-03-04T20:54:19.570Z,2.60
2023-03-04T20:56:47.374Z,2.70
2023-03-04T20:59:14.408Z,2.70
2023-03-04T21:01:43.286Z,2.70
2023-03-04T21:04:11.148Z,2.70
2023-03-04T21:06:39.491Z,2.70
2023-03-04T21:09:14.208Z,2.80
2023-03-04T21:11:42.215Z,2.80
2023-03-04T21:14:24.315Z,2.80
2023-03-04T21:16:56.222Z,2.80
2023-03-04T21:19:27.384Z,2.90
2023-03-04T21:21:56.449Z,2.80
2023-03-04T21:24:26.583Z,2.70
2023-03-04T21:26:53.666Z,2.70
2023-03-04T21:29:23.982Z,2.80
2023-03-04T21:32:23.308Z,2.80
2023-03-04T21:34:52.679Z,2.70
2023-03-04T21:37:21.781Z,2.80
2023-03-04T21:39:48.905Z,2.80
2023-03-04T21:42:16.174Z,2.80
2023-03-04T21:44:51.599Z,2.70
2023-03-04T21:47:20.668Z,2.70
2023-03-04T21:49:48.107Z,2.60
2023-03-04T21:52:15.728Z,2.60
2023-03-04T21:54:42.985Z,2.60
2023-03-04T21:57:10.498Z,2.60
2023-03-04T21:59:38.571Z,2.50
2023-03-04T22:02:07.023Z,2.60
2023-03-04T22:04:34.410Z,2.50
2023-03-04T22:07:01.977Z,2.60
2023-03-04T22:09:29.129Z,2.50
2023-03-04T22:11:56.572Z,2.50
2023-03-04T22:14:23.708Z,2.50
2023-03-04T22:16:55.774Z,2.40
2023-03-04T22:19:30.298Z,2.40
2023-03-04T22:21:57.464Z,2.40
2023-03-04T22:24:26.291Z,2.40
2023-03-04T22:26:53.611Z,2.40
2023-03-04T22:29:20.775Z,2.40
2023-03-04T22:31:48.125Z,2.40
2023-03-04T22:34:16.137Z,2.40
2023-03-04T22:36:45.478Z,2.40
2023-03-04T22:39:19.393Z,2.50
2023-03-04T22:41:47.121Z,2.60
2023-03-04T22:44:14.340Z,2.60
2023-03-04T22:46:42.312Z,2.60
2023-03-04T22:49:11.898Z,2.60
2023-03-04T22:51:43.928Z,2.60
2023-03-04T22:54:15.443Z,2.60
2023-03-04T22:56:42.720Z,2.60
2023-03-04T22:59:10.537Z,2.60
2023-03-04T23:01:37.755Z,2.60
2023-03-04T23:04:05.296Z,2.60
2023-03-04T23:06:32.454Z,2.70
2023-03-04T23:08:59.896Z,2.60
2023-03-04T23:11:30.276Z,2.60
2023-03-04T23:13:58.061Z,2.60
2023-03-04T23:16:27.686Z,2.60
2023-03-04T23:18:54.785Z,2.60
2023-03-04T23:21:24.709Z,2.60
2023-03-04T23:23:52.216Z,2.60
2023-03-04T23:26:22.059Z,2.50
2023-03-04T23:28:49.756Z,2.60
2023-03-04T23:31:17.606Z,2.60
2023-03-04T23:33:47.593Z,2.60
2023-03-04T23:36:17.849Z,2.60
2023-03-04T23:38:47.581Z,2.70
2023-03-04T23:41:17.693Z,2.60
2023-03-04T23:43:45.923Z,2.50
2023-03-04T23:46:13.513Z,2.60
2023-03-04T23:48:43.239Z,2.60
2023-03-04T23:51:10.947Z,2.60
2023-03-04T23:53:41.803Z,2.60
2023-03-04T23:56:10.383Z,2.60
2023-03-04T23:58:38.000Z,2.60
